createdAt,value
2017-05-05T00:02:02.507Z,88.07
2017-05-05T00:04:28.878Z,88.09
2017-05-05T00:06:55.368Z,88.26
2017-05-05T00:09:21.743Z,89.85
2017-05-05T00:11:48.076Z,87.99
2017-05-05T00:14:14.973Z,88.66
2017-05-05T00:16:46.465Z,88.76
2017-05-05T00:19:17.330Z,87.65
2017-05-05T00:21:43.787Z,88.86
2017-05-05T00:24:10.148Z,89.86
2017-05-05T00:26:36.510Z,88.48
2017-05-05T00:29:02.830Z,88.39
2017-05-05T00:31:29.562Z,89.03
2017-05-05T00:33:55.943Z,89.20
2017-05-05T00:36:22.266Z,89.12
2017-05-05T00:38:49.277Z,89.05
2017-05-05T00:41:15.987Z,89.49
2017-05-05T00:43:42.311Z,88.54
2017-05-05T00:46:08.602Z,89.24
2017-05-05T00:48:36.819Z,89.08
2017-05-05T00:51:03.339Z,89.44
2017-05-05T00:53:29.652Z,88.46
2017-05-05T00:55:55.966Z,89.44
2017-05-05T00:58:22.286Z,89.44
2017-05-05T01:00:48.609Z,89.34
2017-05-05T01:03:15.008Z,89.72
2017-05-05T01:05:41.302Z,88.73
2017-05-05T01:08:07.653Z,90.39
2017-05-05T01:10:33.973Z,88.70
2017-05-05T01:13:00.313Z,88.51
2017-05-05T01:15:26.792Z,89.60
2017-05-05T01:17:53.112Z,88.27
2017-05-05T01:20:19.434Z,88.05
2017-05-05T01:22:46.233Z,88.42
2017-05-05T01:25:12.617Z,87.96
2017-05-05T01:27:38.951Z,88.85
2017-05-05T01:30:05.277Z,88.72
2017-05-05T01:32:31.625Z,89.05
2017-05-05T01:34:57.956Z,89.68
2017-05-05T01:37:24.293Z,88.16
2017-05-05T01:39:50.606Z,89.77
2017-05-05T01:42:16.944Z,89.56
2017-05-05T01:44:43.254Z,88.73
2017-05-05T01:47:09.601Z,89.76
2017-05-05T01:49:35.908Z,89.69
2017-05-05T01:52:02.201Z,90.14
2017-05-05T01:54:28.600Z,89.56
2017-05-05T01:56:54.907Z,89.08
2017-05-05T01:59:21.285Z,89.20
2017-05-05T02:01:47.598Z,89.74
2017-05-05T02:04:13.946Z,89.27
2017-05-05T02:06:40.268Z,89.08
2017-05-05T02:09:06.607Z,89.32
2017-05-05T02:11:32.940Z,88.59
2017-05-05T02:13:59.252Z,90.01
2017-05-05T02:16:25.572Z,89.82
2017-05-05T02:18:51.921Z,90.21
2017-05-05T02:21:18.240Z,89.31
2017-05-05T02:23:44.559Z,89.18
2017-05-05T02:26:10.897Z,89.20
2017-05-05T02:28:37.230Z,89.62
2017-05-05T02:31:03.569Z,89.88
2017-05-05T02:33:29.907Z,90.05
2017-05-05T02:35:56.235Z,88.10
2017-05-05T02:38:22.592Z,89.01
2017-05-05T02:40:48.951Z,90.14
2017-05-05T02:43:15.284Z,89.64
2017-05-05T02:45:41.613Z,89.40
2017-05-05T02:48:07.951Z,89.54
2017-05-05T02:50:34.489Z,89.09
2017-05-05T02:53:00.812Z,89.95
2017-05-05T02:55:27.153Z,89.17
2017-05-05T02:57:53.509Z,89.62
2017-05-05T03:00:20.279Z,88.38
2017-05-05T03:02:46.599Z,90.22
2017-05-05T03:05:12.915Z,89.68
2017-05-05T03:07:39.217Z,89.28
2017-05-05T03:10:05.695Z,89.60
2017-05-05T03:12:32.051Z,88.58
2017-05-05T03:14:58.388Z,89.06
2017-05-05T03:17:24.711Z,90.03
2017-05-05T03:19:51.190Z,89.90
2017-05-05T03:22:17.511Z,89.83
2017-05-05T03:24:43.848Z,88.84
2017-05-05T03:27:10.187Z,89.09
2017-05-05T03:29:36.473Z,90.12
2017-05-05T03:32:02.785Z,88.92
2017-05-05T03:34:29.104Z,89.67
2017-05-05T03:36:55.428Z,90.80
2017-05-05T03:39:21.729Z,88.97
2017-05-05T03:41:48.034Z,90.19
2017-05-05T03:44:14.658Z,90.54
2017-05-05T03:46:41.100Z,87.58
2017-05-05T03:49:07.449Z,88.69
2017-05-05T03:51:33.757Z,89.47
2017-05-05T03:54:00.081Z,88.98
2017-05-05T03:56:26.525Z,87.43
2017-05-05T03:58:52.884Z,88.48
2017-05-05T04:01:19.232Z,90.30
2017-05-05T04:03:45.559Z,89.68
2017-05-05T04:06:11.942Z,89.28
2017-05-05T04:08:38.244Z,90.89
2017-05-05T04:11:05.381Z,88.75
2017-05-05T04:13:31.867Z,89.80
2017-05-05T04:15:58.678Z,90.67
2017-05-05T04:18:25.029Z,89.08
2017-05-05T04:20:51.398Z,89.11
2017-05-05T04:23:17.726Z,90.12
2017-05-05T04:25:44.061Z,89.24
2017-05-05T04:28:10.405Z,90.01
2017-05-05T04:30:36.736Z,89.07
2017-05-05T04:33:03.073Z,88.93
2017-05-05T04:35:29.429Z,88.32
2017-05-05T04:37:55.793Z,90.50
2017-05-05T04:40:22.161Z,89.93
2017-05-05T04:42:48.524Z,90.39
2017-05-05T04:45:14.889Z,90.73
2017-05-05T04:47:41.292Z,89.26
2017-05-05T04:50:07.776Z,88.70
2017-05-05T04:52:34.101Z,89.71
2017-05-05T04:55:00.441Z,90.23
2017-05-05T04:57:26.768Z,90.39
2017-05-05T04:59:53.232Z,90.00
2017-05-05T05:02:19.596Z,91.04
2017-05-05T05:04:45.949Z,89.76
2017-05-05T05:07:12.275Z,90.64
2017-05-05T05:09:38.688Z,90.21
2017-05-05T05:12:05.009Z,90.52
2017-05-05T05:14:31.348Z,91.15
2017-05-05T05:16:57.672Z,90.96
2017-05-05T05:19:24.019Z,89.49
2017-05-05T05:21:50.369Z,90.98
2017-05-05T05:24:16.721Z,91.11
2017-05-05T05:26:43.056Z,91.19
2017-05-05T05:29:09.424Z,90.86
2017-05-05T05:31:35.779Z,90.12
2017-05-05T05:34:02.152Z,89.32
2017-05-05T05:36:28.485Z,88.23
2017-05-05T05:38:54.943Z,90.14
2017-05-05T05:41:21.273Z,90.03
2017-05-05T05:43:47.603Z,89.58
2017-05-05T05:46:13.990Z,88.95
2017-05-05T05:48:40.337Z,88.96
2017-05-05T05:51:06.675Z,88.32
2017-05-05T05:53:33.002Z,89.98
2017-05-05T05:55:59.349Z,90.12
2017-05-05T05:58:25.670Z,89.45
2017-05-05T06:00:52.025Z,89.86
2017-05-05T06:03:18.384Z,90.12
2017-05-05T06:05:44.699Z,89.49
2017-05-05T06:08:11.025Z,88.46
2017-05-05T06:10:37.818Z,88.18
2017-05-05T06:13:04.178Z,89.72
2017-05-05T06:15:30.675Z,88.25
2017-05-05T06:17:57.020Z,89.15
2017-05-05T06:20:23.344Z,89.80
2017-05-05T06:22:49.669Z,89.61
2017-05-05T06:25:16.042Z,89.01
2017-05-05T06:27:42.375Z,90.04
2017-05-05T06:30:08.716Z,89.73
2017-05-05T06:32:35.065Z,89.82
2017-05-05T06:35:01.553Z,89.60
2017-05-05T06:37:27.877Z,89.35
2017-05-05T06:39:54.197Z,89.37
2017-05-05T06:42:20.525Z,89.67
2017-05-05T06:44:47.031Z,89.71
2017-05-05T06:47:13.338Z,89.66
2017-05-05T06:49:39.678Z,88.81
2017-05-05T06:52:06.029Z,90.50
2017-05-05T06:54:32.530Z,90.10
2017-05-05T06:56:58.880Z,90.14
2017-05-05T06:59:25.201Z,89.09
2017-05-05T07:01:51.559Z,89.73
2017-05-05T07:04:17.875Z,87.92
2017-05-05T07:06:44.205Z,88.07
2017-05-05T07:09:10.547Z,88.98
2017-05-05T07:11:36.880Z,89.22
2017-05-05T07:14:03.240Z,89.29
2017-05-05T07:16:29.560Z,88.66
2017-05-05T07:18:55.904Z,86.94
2017-05-05T07:21:22.245Z,88.71
2017-05-05T07:23:48.569Z,88.09
2017-05-05T07:26:14.903Z,88.70
2017-05-05T07:28:41.278Z,88.00
2017-05-05T07:31:07.628Z,89.23
2017-05-05T07:33:33.950Z,87.63
2017-05-05T07:36:00.328Z,87.53
2017-05-05T07:38:26.659Z,87.83
2017-05-05T07:40:53.087Z,88.09
2017-05-05T07:43:19.481Z,86.86
2017-05-05T07:45:45.839Z,87.15
2017-05-05T07:48:12.192Z,87.11
2017-05-05T07:50:38.531Z,89.16
2017-05-05T07:53:04.904Z,88.67
2017-05-05T07:55:31.244Z,88.47
2017-05-05T07:57:57.576Z,88.12
2017-05-05T08:00:24.114Z,88.10
2017-05-05T08:02:50.456Z,87.60
2017-05-05T08:05:16.829Z,87.97
2017-05-05T08:07:43.142Z,88.57
2017-05-05T08:10:09.539Z,88.53
2017-05-05T08:12:35.911Z,88.38
2017-05-05T08:15:02.276Z,88.15
2017-05-05T08:17:28.624Z,88.95
2017-05-05T08:19:55.137Z,87.07
2017-05-05T08:22:21.454Z,86.48
2017-05-05T08:24:47.849Z,86.00
2017-05-05T08:27:14.167Z,86.41
2017-05-05T08:29:40.504Z,87.72
2017-05-05T08:32:06.822Z,87.41
2017-05-05T08:34:33.669Z,86.20
2017-05-05T08:37:00.102Z,86.40
2017-05-05T08:39:26.463Z,86.43
2017-05-05T08:41:52.805Z,85.75
2017-05-05T08:44:19.348Z,85.81
2017-05-05T08:46:45.777Z,85.17
2017-05-05T08:49:12.146Z,86.24
2017-05-05T08:51:38.488Z,85.35
2017-05-05T08:54:04.822Z,85.07
2017-05-05T08:56:31.187Z,83.88
2017-05-05T08:58:57.514Z,84.37
2017-05-05T09:01:23.891Z,84.69
2017-05-05T09:03:50.225Z,84.89
2017-05-05T09:06:16.541Z,84.60
2017-05-05T09:08:42.882Z,84.58
2017-05-05T09:11:09.239Z,83.88
2017-05-05T09:13:35.597Z,84.09
2017-05-05T09:16:01.922Z,83.92
2017-05-05T09:18:28.278Z,84.11
2017-05-05T09:20:54.598Z,83.81
2017-05-05T09:23:20.944Z,83.97
2017-05-05T09:25:47.263Z,83.64
2017-05-05T09:28:13.591Z,83.90
2017-05-05T09:30:39.927Z,84.76
2017-05-05T09:33:06.269Z,84.85
2017-05-05T09:35:32.586Z,84.56
2017-05-05T09:37:58.906Z,84.47
2017-05-05T09:40:25.278Z,85.02
2017-05-05T09:42:51.619Z,84.95
2017-05-05T09:45:17.976Z,85.11
2017-05-05T09:47:44.316Z,84.79
2017-05-05T09:50:10.670Z,85.39
2017-05-05T09:52:37.024Z,85.03
2017-05-05T09:55:03.366Z,85.34
2017-05-05T09:57:29.721Z,85.31
2017-05-05T09:59:56.067Z,85.56
2017-05-05T10:02:22.387Z,85.90
2017-05-05T10:04:48.718Z,85.34
2017-05-05T10:07:15.033Z,85.40
2017-05-05T10:09:41.380Z,84.83
2017-05-05T10:12:07.712Z,85.38
2017-05-05T10:14:34.176Z,84.53
2017-05-05T10:17:00.530Z,85.42
2017-05-05T10:19:26.854Z,84.94
2017-05-05T10:21:53.173Z,85.22
2017-05-05T10:24:19.593Z,85.26
2017-05-05T10:26:45.933Z,84.97
2017-05-05T10:29:12.283Z,85.43
2017-05-05T10:31:38.641Z,85.67
2017-05-05T10:34:04.996Z,85.55
2017-05-05T10:36:33.727Z,85.17
2017-05-05T10:39:00.061Z,84.79
2017-05-05T10:41:26.409Z,84.09
2017-05-05T10:43:52.757Z,83.70
2017-05-05T10:46:19.114Z,84.34
2017-05-05T10:48:45.453Z,84.21
2017-05-05T10:51:11.814Z,84.88
2017-05-05T10:53:38.173Z,85.17
2017-05-05T10:56:04.499Z,84.69
2017-05-05T10:58:30.850Z,85.06
2017-05-05T11:00:57.201Z,85.32
2017-05-05T11:03:23.658Z,85.35
2017-05-05T11:05:50.000Z,84.76
2017-05-05T11:08:16.374Z,84.94
2017-05-05T11:10:42.727Z,85.42
2017-05-05T11:13:09.139Z,85.16
2017-05-05T11:15:35.500Z,85.82
2017-05-05T11:18:01.852Z,86.25
2017-05-05T11:20:28.235Z,85.59
2017-05-05T11:22:54.674Z,85.25
2017-05-05T11:25:21.051Z,85.39
2017-05-05T11:27:47.392Z,85.51
2017-05-05T11:30:13.735Z,85.32
2017-05-05T11:32:40.170Z,85.98
2017-05-05T11:35:06.516Z,85.62
2017-05-05T11:37:32.866Z,85.38
2017-05-05T11:39:59.216Z,85.33
2017-05-05T11:42:25.657Z,85.45
2017-05-05T11:44:52.014Z,86.05
2017-05-05T11:47:18.370Z,86.11
2017-05-05T11:49:44.739Z,84.96
2017-05-05T11:52:11.083Z,85.80
2017-05-05T11:54:37.423Z,84.49
2017-05-05T11:57:03.755Z,84.88
2017-05-05T11:59:30.132Z,85.05
2017-05-05T12:01:56.466Z,84.48
2017-05-05T12:04:22.803Z,84.02
2017-05-05T12:06:49.154Z,85.78
2017-05-05T12:09:15.474Z,84.07
2017-05-05T12:11:41.817Z,85.05
2017-05-05T12:14:08.221Z,84.38
2017-05-05T12:16:35.098Z,84.43
2017-05-05T12:19:01.559Z,84.13
2017-05-05T12:21:27.901Z,82.51
2017-05-05T12:23:54.265Z,82.45
2017-05-05T12:26:20.600Z,83.12
2017-05-05T12:28:46.996Z,82.97
2017-05-05T12:31:13.358Z,81.64
2017-05-05T12:33:39.704Z,81.67
2017-05-05T12:36:06.046Z,81.43
2017-05-05T12:38:32.451Z,80.48
2017-05-05T12:40:58.789Z,79.16
2017-05-05T12:43:25.142Z,80.34
2017-05-05T12:45:51.482Z,79.90
2017-05-05T12:48:17.807Z,80.14
2017-05-05T12:50:44.143Z,80.44
2017-05-05T12:53:10.480Z,81.44
2017-05-05T12:55:36.831Z,78.97
2017-05-05T12:58:03.167Z,79.06
2017-05-05T13:00:29.520Z,78.54
2017-05-05T13:02:55.874Z,78.65
2017-05-05T13:05:22.211Z,79.79
2017-05-05T13:07:48.590Z,79.29
2017-05-05T13:10:15.001Z,79.48
2017-05-05T13:12:41.360Z,79.10
2017-05-05T13:15:07.716Z,80.72
2017-05-05T13:17:34.078Z,79.46
2017-05-05T13:20:00.433Z,80.51
2017-05-05T13:22:26.778Z,79.99
2017-05-05T13:24:53.695Z,79.21
2017-05-05T13:27:20.036Z,79.11
2017-05-05T13:29:46.364Z,78.23
2017-05-05T13:32:12.682Z,78.37
2017-05-05T13:34:45.176Z,79.16
2017-05-05T13:37:11.744Z,78.85
2017-05-05T13:39:38.100Z,79.23
2017-05-05T13:42:04.620Z,79.29
2017-05-05T13:44:30.972Z,78.38
2017-05-05T13:46:57.328Z,79.05
2017-05-05T13:49:23.686Z,77.44
2017-05-05T13:51:50.283Z,77.95
2017-05-05T13:54:16.672Z,78.06
2017-05-05T13:56:42.972Z,78.47
2017-05-05T13:59:09.339Z,79.14
2017-05-05T14:01:35.713Z,78.17
2017-05-05T14:04:05.000Z,78.53
2017-05-05T14:06:31.600Z,77.70
2017-05-05T14:09:01.005Z,78.25
2017-05-05T14:11:28.059Z,78.13
2017-05-05T14:13:54.395Z,76.30
2017-05-05T14:16:20.737Z,75.92
2017-05-05T14:18:47.289Z,75.98
2017-05-05T14:21:13.844Z,75.74
2017-05-05T14:23:40.247Z,76.19
2017-05-05T14:26:06.816Z,75.84
2017-05-05T14:28:36.593Z,75.34
2017-05-05T14:31:03.059Z,76.07
2017-05-05T14:33:29.392Z,74.89
2017-05-05T14:35:55.778Z,75.98
2017-05-05T14:38:23.255Z,75.16
2017-05-05T14:40:49.587Z,75.54
2017-05-05T14:43:15.937Z,75.49
2017-05-05T14:45:42.300Z,75.12
2017-05-05T14:48:08.590Z,75.96
2017-05-05T14:50:34.930Z,76.22
2017-05-05T14:53:01.282Z,76.30
2017-05-05T14:55:27.852Z,74.90
2017-05-05T14:57:55.705Z,75.46
2017-05-05T15:00:22.997Z,75.90
2017-05-05T15:02:50.285Z,75.18
2017-05-05T15:05:16.761Z,75.24
2017-05-05T15:07:43.306Z,75.45
2017-05-05T15:10:09.933Z,76.18
2017-05-05T15:12:37.252Z,76.61
2017-05-05T15:15:03.687Z,76.44
2017-05-05T15:17:30.527Z,75.77
2017-05-05T15:19:57.605Z,76.15
2017-05-05T15:22:24.120Z,75.77
2017-05-05T15:24:50.468Z,76.18
2017-05-05T15:27:17.688Z,75.23
2017-05-05T15:29:44.418Z,75.47
2017-05-05T15:32:10.938Z,75.04
2017-05-05T15:34:39.206Z,75.37
2017-05-05T15:37:06.415Z,74.43
2017-05-05T15:39:33.857Z,73.82
2017-05-05T15:42:00.878Z,74.29
2017-05-05T15:44:27.563Z,72.44
2017-05-05T15:46:54.575Z,73.23
2017-05-05T15:49:20.909Z,72.20
2017-05-05T15:51:47.260Z,72.06
2017-05-05T15:54:13.737Z,72.84
2017-05-05T15:56:40.156Z,73.72
2017-05-05T15:59:06.533Z,73.15
2017-05-05T16:01:32.885Z,73.25
2017-05-05T16:03:59.354Z,73.29
2017-05-05T16:06:25.689Z,73.14
2017-05-05T16:08:52.214Z,72.69
2017-05-05T16:11:18.599Z,71.94
2017-05-05T16:13:44.939Z,72.93
2017-05-05T16:16:11.311Z,72.66
2017-05-05T16:18:37.622Z,72.98
2017-05-05T16:21:03.937Z,72.68
2017-05-05T16:23:30.249Z,72.65
2017-05-05T16:25:57.480Z,73.40
2017-05-05T16:28:23.834Z,73.49
2017-05-05T16:30:50.192Z,72.69
2017-05-05T16:33:16.807Z,72.31
2017-05-05T16:35:43.135Z,72.28
2017-05-05T16:38:09.917Z,71.74
2017-05-05T16:40:37.181Z,72.35
2017-05-05T16:43:03.728Z,73.20
2017-05-05T16:45:31.066Z,72.65
2017-05-05T16:47:58.134Z,73.00
2017-05-05T16:50:24.862Z,72.64
2017-05-05T16:52:51.882Z,72.50
2017-05-05T16:55:18.506Z,71.97
2017-05-05T16:57:45.730Z,73.54
2017-05-05T17:00:12.238Z,73.97
2017-05-05T17:02:39.351Z,73.90
2017-05-05T17:05:06.240Z,73.88
2017-05-05T17:07:33.265Z,73.50
2017-05-05T17:09:59.570Z,73.42
2017-05-05T17:12:25.914Z,73.69
2017-05-05T17:14:52.288Z,73.10
2017-05-05T17:17:18.659Z,73.05
2017-05-05T17:19:45.135Z,73.29
2017-05-05T17:22:11.495Z,74.04
2017-05-05T17:24:37.835Z,74.08
2017-05-05T17:27:04.194Z,74.36
2017-05-05T17:29:30.700Z,74.88
2017-05-05T17:31:57.063Z,74.73
2017-05-05T17:34:23.456Z,74.68
2017-05-05T17:36:49.841Z,74.69
2017-05-05T17:39:16.348Z,75.01
2017-05-05T17:41:42.719Z,75.10
2017-05-05T17:44:09.093Z,74.77
2017-05-05T17:46:35.414Z,74.91
2017-05-05T17:49:01.800Z,74.46
2017-05-05T17:51:28.153Z,74.72
2017-05-05T17:53:54.502Z,74.86
2017-05-05T17:56:20.838Z,74.78
2017-05-05T17:58:47.376Z,75.44
2017-05-05T18:01:13.708Z,75.16
2017-05-05T18:03:40.056Z,75.22
2017-05-05T18:06:06.414Z,75.99
2017-05-05T18:08:32.993Z,76.11
2017-05-05T18:10:59.377Z,75.57
2017-05-05T18:13:25.753Z,76.14
2017-05-05T18:15:58.391Z,76.26
2017-05-05T18:18:24.798Z,76.67
2017-05-05T18:20:52.870Z,76.82
2017-05-05T18:23:21.758Z,77.31
2017-05-05T18:25:49.458Z,76.70
2017-05-05T18:28:17.415Z,76.54
2017-05-05T18:30:45.533Z,76.91
2017-05-05T18:33:13.406Z,76.58
2017-05-05T18:35:41.426Z,78.05
2017-05-05T18:38:09.305Z,78.05
2017-05-05T18:40:37.066Z,78.10
2017-05-05T18:43:03.476Z,78.62
2017-05-05T18:45:29.871Z,78.34
2017-05-05T18:47:56.257Z,78.14
2017-05-05T18:50:22.598Z,78.82
2017-05-05T18:52:49.811Z,79.26
2017-05-05T18:55:16.182Z,79.69
2017-05-05T18:57:42.587Z,78.81
2017-05-05T19:00:08.994Z,79.84
2017-05-05T19:02:35.406Z,80.21
2017-05-05T19:05:01.775Z,80.35
2017-05-05T19:07:28.904Z,80.73
2017-05-05T19:09:56.136Z,79.61
2017-05-05T19:12:23.175Z,80.19
2017-05-05T19:14:49.836Z,81.04
2017-05-05T19:17:16.253Z,81.83
2017-05-05T19:19:42.676Z,82.37
2017-05-05T19:22:09.281Z,82.23
2017-05-05T19:24:36.220Z,82.61
2017-05-05T19:27:02.623Z,81.98
2017-05-05T19:29:28.969Z,80.79
2017-05-05T19:31:55.577Z,82.32
2017-05-05T19:34:22.199Z,81.38
2017-05-05T19:36:48.635Z,83.38
2017-05-05T19:39:15.600Z,81.69
2017-05-05T19:41:42.619Z,82.43
2017-05-05T19:44:09.065Z,82.05
2017-05-05T19:46:36.613Z,83.93
2017-05-05T19:49:03.109Z,84.32
2017-05-05T19:51:31.342Z,83.61
2017-05-05T19:53:59.639Z,84.07
2017-05-05T19:56:27.948Z,84.25
2017-05-05T19:58:55.145Z,84.83
2017-05-05T20:01:22.765Z,83.75
2017-05-05T20:03:49.426Z,84.04
2017-05-05T20:06:16.684Z,84.62
2017-05-05T20:08:43.328Z,82.91
2017-05-05T20:11:09.788Z,85.85
2017-05-05T20:13:37.021Z,85.02
2017-05-05T20:16:03.403Z,87.27
2017-05-05T20:18:30.685Z,86.90
2017-05-05T20:20:59.344Z,87.11
2017-05-05T20:23:27.357Z,85.63
2017-05-05T20:25:55.079Z,85.31
2017-05-05T20:28:22.160Z,85.98
2017-05-05T20:30:49.853Z,86.87
2017-05-05T20:33:16.386Z,84.33
2017-05-05T20:35:42.800Z,87.85
2017-05-05T20:38:09.395Z,86.33
2017-05-05T20:40:36.516Z,85.00
2017-05-05T20:43:03.341Z,86.84
2017-05-05T20:45:33.619Z,85.14
2017-05-05T20:48:01.634Z,86.37
2017-05-05T20:50:29.397Z,86.53
2017-05-05T20:52:57.103Z,87.43
2017-05-05T20:55:24.297Z,87.16
2017-05-05T20:57:51.420Z,84.76
2017-05-05T21:00:18.150Z,85.82
2017-05-05T21:02:45.737Z,85.99
2017-05-05T21:05:12.466Z,84.79
2017-05-05T21:07:39.038Z,86.41
2017-05-05T21:10:05.881Z,86.31
2017-05-05T21:12:32.251Z,87.31
2017-05-05T21:14:58.825Z,86.11
2017-05-05T21:17:25.832Z,87.79
2017-05-05T21:19:52.218Z,88.18
2017-05-05T21:22:18.821Z,87.47
2017-05-05T21:24:45.220Z,86.11
2017-05-05T21:27:11.582Z,86.82
2017-05-05T21:29:38.293Z,87.65
2017-05-05T21:32:04.653Z,88.55
2017-05-05T21:34:31.113Z,88.34
2017-05-05T21:36:57.474Z,88.92
2017-05-05T21:39:24.023Z,89.41
2017-05-05T21:41:50.402Z,87.76
2017-05-05T21:44:16.746Z,87.47
2017-05-05T21:46:43.502Z,87.07
2017-05-05T21:49:09.886Z,87.45
2017-05-05T21:51:36.236Z,89.04
2017-05-05T21:54:02.703Z,89.66
2017-05-05T21:56:29.214Z,88.76
2017-05-05T21:58:55.592Z,88.54
2017-05-05T22:01:21.936Z,89.92
2017-05-05T22:03:48.309Z,88.93
2017-05-05T22:06:14.810Z,89.48
2017-05-05T22:08:41.164Z,88.88
2017-05-05T22:11:07.616Z,89.74
2017-05-05T22:13:33.951Z,88.10
2017-05-05T22:16:00.481Z,88.22
2017-05-05T22:18:26.834Z,89.47
2017-05-05T22:20:53.150Z,90.05
2017-05-05T22:23:19.543Z,88.34
2017-05-05T22:25:45.916Z,88.44
2017-05-05T22:28:12.301Z,88.05
2017-05-05T22:30:38.672Z,89.08
2017-05-05T22:33:05.111Z,90.03
2017-05-05T22:35:31.458Z,88.96
2017-05-05T22:38:01.307Z,89.70
2017-05-05T22:40:31.731Z,88.76
2017-05-05T22:43:01.823Z,89.28
2017-05-05T22:45:31.780Z,88.40
2017-05-05T22:48:01.774Z,88.69
2017-05-05T22:50:31.953Z,89.21
2017-05-05T22:53:01.880Z,88.77
2017-05-05T22:55:31.820Z,89.11
2017-05-05T22:58:03.349Z,88.32
2017-05-05T23:00:33.370Z,89.28
2017-05-05T23:03:03.268Z,89.53
2017-05-05T23:05:33.099Z,91.09
2017-05-05T23:08:03.101Z,91.67
2017-05-05T23:10:32.842Z,90.44
2017-05-05T23:13:02.357Z,89.76
2017-05-05T23:15:31.879Z,88.52
2017-05-05T23:18:01.791Z,89.26
2017-05-05T23:20:31.911Z,90.05
2017-05-05T23:23:01.990Z,90.08
2017-05-05T23:25:32.359Z,90.52
2017-05-05T23:28:02.367Z,91.10
2017-05-05T23:30:32.105Z,90.43
2017-05-05T23:33:02.438Z,89.25
2017-05-05T23:35:32.407Z,89.35
2017-05-05T23:38:01.938Z,89.37
2017-05-05T23:40:31.720Z,90.62
2017-05-05T23:43:01.338Z,90.27
2017-05-05T23:45:31.469Z,90.72
2017-05-05T23:48:01.815Z,90.63
2017-05-05T23:53:05.556Z,90.40
2017-05-05T23:55:35.677Z,89.87
2017-05-05T23:58:05.852Z,89.87
